Time;durP1;ratioP1;P1;durP2;ratioP2;P2;SDS_P1;SDS_P2;PMS_P1;PMS_P2;Temp;Humidity;BMP_temperature;BMP_pressure;BME280_temperature;BME280_humidity;BME280_pressure;Samples;Min_cycle;Max_cycle;Signal;HPM_P1;HPM_P2
2021/07/01 00:03:10;;;;;;;1.90;1.80;;;15.60;99.90;;;;;;10469448;28;20593;-81
2021/07/01 00:08:12;;;;;;;1.70;1.60;;;15.70;99.90;;;;;;10485980;28;20232;-81
2021/07/01 00:13:16;;;;;;;2.00;1.90;;;15.70;99.90;;;;;;10468550;28;20312;-81
2021/07/01 00:18:18;;;;;;;1.60;1.60;;;15.60;99.90;;;;;;10466806;28;20231;-81
2021/07/01 00:23:20;;;;;;;1.87;1.77;;;15.60;99.90;;;;;;10482854;28;20304;-80
2021/07/01 00:28:24;;;;;;;1.90;1.80;;;15.50;99.90;;;;;;10481831;28;20660;-80
2021/07/01 00:33:26;;;;;;;1.60;1.50;;;15.40;99.90;;;;;;10468199;28;20637;-82
2021/07/01 00:38:28;;;;;;;1.70;1.60;;;15.40;99.90;;;;;;10488626;28;20193;-80
2021/07/01 00:43:31;;;;;;;1.37;1.37;;;15.40;99.90;;;;;;10484391;28;20251;-80
2021/07/01 00:48:34;;;;;;;1.70;1.60;;;15.50;99.90;;;;;;10485886;28;20255;-80
2021/07/01 00:53:36;;;;;;;1.83;1.73;;;15.50;99.90;;;;;;10485162;28;20213;-81
2021/07/01 00:58:40;;;;;;;1.70;1.70;;;15.50;99.90;;;;;;10482091;28;20215;-81
2021/07/01 01:03:43;;;;;;;1.43;1.43;;;15.60;99.90;;;;;;10488055;28;20570;-80
2021/07/01 01:08:45;;;;;;;1.53;1.50;;;15.60;99.90;;;;;;10490450;28;20223;-81
2021/07/01 01:13:48;;;;;;;1.57;1.47;;;15.70;99.90;;;;;;10484915;28;20621;-81
2021/07/01 01:19:08;;;;;;;3.40;1.60;;;15.70;99.90;;;;;;10492741;28;20699;-80
2021/07/01 01:24:13;;;;;;;1.63;1.53;;;15.80;99.90;;;;;;10466498;28;20240;-81
2021/07/01 01:29:15;;;;;;;1.80;1.70;;;15.80;99.90;;;;;;10500032;28;20212;-80
2021/07/01 01:34:19;;;;;;;1.30;1.20;;;15.80;99.90;;;;;;10500444;28;20711;-81
2021/07/01 01:39:23;;;;;;;1.40;1.40;;;15.80;99.90;;;;;;10487348;28;20746;-81
2021/07/01 01:44:39;;;;;;;1.40;1.40;;;15.90;99.90;;;;;;10494720;28;20634;-80
2021/07/01 01:49:44;;;;;;;1.40;1.40;;;15.90;99.90;;;;;;10481602;28;20208;-81
2021/07/01 01:54:50;;;;;;;1.40;1.30;;;16.00;99.90;;;;;;10493962;28;20310;-81
2021/07/01 01:59:52;;;;;;;2.73;1.30;;;16.00;99.90;;;;;;10504911;28;20228;-79
2021/07/01 02:05:13;;;;;;;1.40;1.30;;;16.10;99.90;;;;;;10493965;28;20249;-81
2021/07/01 02:10:19;;;;;;;2.90;1.30;;;16.10;99.90;;;;;;10505013;28;20204;-80
2021/07/01 02:15:24;;;;;;;1.33;1.30;;;16.10;99.90;;;;;;10502312;28;20647;-80
2021/07/01 02:20:29;;;;;;;1.40;1.40;;;16.20;99.90;;;;;;10479219;28;20204;-80
2021/07/01 02:25:35;;;;;;;1.50;1.50;;;16.20;99.90;;;;;;10504605;28;20234;-80
2021/07/01 02:30:50;;;;;;;1.70;1.60;;;16.20;99.90;;;;;;10482777;28;20250;-81
2021/07/01 02:35:52;;;;;;;1.30;1.30;;;16.10;99.90;;;;;;10465227;28;20235;-80
2021/07/01 02:41:15;;;;;;;1.93;1.83;;;16.20;99.90;;;;;;10497532;28;20200;-80
2021/07/01 02:46:19;;;;;;;1.70;1.40;;;16.20;99.90;;;;;;10477703;28;20319;-80
2021/07/01 02:51:25;;;;;;;2.10;1.50;;;16.20;99.90;;;;;;10488357;28;20573;-80
2021/07/01 02:56:40;;;;;;;1.30;1.07;;;16.20;99.90;;;;;;10494883;28;20228;-81
2021/07/01 03:01:44;;;;;;;1.40;1.30;;;16.20;99.90;;;;;;10477738;28;20201;-80
2021/07/01 03:07:00;;;;;;;1.10;1.00;;;16.20;99.90;;;;;;10487046;28;20239;-80
2021/07/01 03:12:04;;;;;;;1.30;1.20;;;16.20;99.90;;;;;;10494969;28;20215;-80
2021/07/01 03:17:07;;;;;;;1.30;1.20;;;16.10;99.90;;;;;;10473911;28;20201;-80
2021/07/01 03:22:11;;;;;;;1.33;1.23;;;16.10;99.90;;;;;;10455889;28;20256;-80
2021/07/01 03:27:17;;;;;;;1.10;1.10;;;16.10;99.90;;;;;;10495088;28;20209;-80
2021/07/01 03:32:19;;;;;;;1.63;1.53;;;16.20;99.90;;;;;;10460784;28;1108176;-80
2021/07/01 03:37:21;;;;;;;1.67;1.40;;;16.20;99.90;;;;;;10495386;28;20734;-80
2021/07/01 03:42:58;;;;;;;1.20;1.20;;;16.30;99.90;;;;;;10465845;28;20391;-80
2021/07/01 03:48:01;;;;;;;1.13;1.10;;;16.30;99.90;;;;;;10477157;28;20212;-80
2021/07/01 03:53:06;;;;;;;1.77;1.23;;;16.30;99.90;;;;;;10487574;28;20240;-80
2021/07/01 03:58:11;;;;;;;1.87;1.40;;;16.30;99.90;;;;;;10504053;28;20200;-80
2021/07/01 04:03:14;;;;;;;1.50;1.40;;;16.30;99.90;;;;;;10483458;28;20244;-80
2021/07/01 04:08:39;;;;;;;1.40;1.40;;;16.30;99.90;;;;;;10501498;28;20207;-80
2021/07/01 04:13:43;;;;;;;1.20;1.20;;;16.30;99.90;;;;;;10480538;28;20225;-80
2021/07/01 04:19:04;;;;;;;1.70;1.60;;;16.40;99.90;;;;;;10486530;28;20233;-80
2021/07/01 04:24:24;;;;;;;1.97;1.80;;;16.40;99.90;;;;;;10493657;28;20227;-80
2021/07/01 04:29:37;;;;;;;2.70;1.73;;;16.50;99.90;;;;;;10495432;28;20279;-80
2021/07/01 04:34:39;;;;;;;1.87;1.77;;;16.50;99.90;;;;;;10497900;28;20621;-81
2021/07/01 04:39:41;;;;;;;1.67;1.50;;;16.60;99.90;;;;;;10470590;28;20213;-81
2021/07/01 04:44:55;;;;;;;1.70;1.60;;;16.60;99.90;;;;;;10481420;28;20252;-81
2021/07/01 04:50:01;;;;;;;2.00;1.90;;;16.60;99.90;;;;;;10485998;28;20232;-81
2021/07/01 04:55:16;;;;;;;1.40;1.40;;;16.70;99.90;;;;;;10504921;28;20607;-81
2021/07/01 05:00:38;;;;;;;1.40;1.30;;;16.70;99.90;;;;;;10490870;28;20204;-80
2021/07/01 05:06:06;;;;;;;1.80;1.47;;;16.70;99.90;;;;;;10476115;28;20224;-80
2021/07/01 05:11:11;;;;;;;1.20;1.20;;;16.80;99.90;;;;;;10499231;28;20205;-81
2021/07/01 05:16:14;;;;;;;1.30;1.20;;;16.80;99.90;;;;;;10459797;28;20257;-80
2021/07/01 05:21:17;;;;;;;1.33;1.20;;;16.80;99.90;;;;;;10458977;28;20583;-81
2021/07/01 05:26:55;;;;;;;2.20;2.10;;;16.80;99.90;;;;;;10403862;28;20212;-81
2021/07/01 05:32:34;;;;;;;1.47;1.43;;;16.90;99.90;;;;;;10509413;22;20254;-80
2021/07/01 05:37:52;;;;;;;1.40;1.40;;;17.00;99.90;;;;;;10537748;28;20211;-80
2021/07/01 05:42:55;;;;;;;2.10;1.73;;;17.10;99.90;;;;;;10543641;28;20227;-80
2021/07/01 05:47:59;;;;;;;1.87;1.70;;;17.20;99.90;;;;;;10544906;28;20206;-80
2021/07/01 05:53:06;;;;;;;1.70;1.60;;;17.20;99.90;;;;;;10546546;28;20218;-80
2021/07/01 05:58:08;;;;;;;2.30;2.20;;;17.30;99.90;;;;;;10546518;28;20231;-80
2021/07/01 06:03:11;;;;;;;1.27;1.17;;;17.30;99.90;;;;;;10545887;28;20646;-80
2021/07/01 06:08:21;;;;;;;2.23;1.90;;;17.40;99.90;;;;;;10543845;28;20276;-80
2021/07/01 06:13:23;;;;;;;1.80;1.70;;;17.40;99.90;;;;;;10533683;28;20239;-80
2021/07/01 06:18:27;;;;;;;2.60;2.23;;;17.40;99.90;;;;;;10538698;28;20255;-80
2021/07/01 06:23:29;;;;;;;4.33;1.80;;;17.50;99.90;;;;;;10545309;28;20212;-80
2021/07/01 06:28:36;;;;;;;1.80;1.70;;;17.50;99.90;;;;;;10533457;28;20303;-81
2021/07/01 06:33:42;;;;;;;1.50;1.40;;;17.50;99.90;;;;;;10520239;28;20270;-80
2021/07/01 06:38:47;;;;;;;2.10;1.90;;;17.60;99.90;;;;;;10490534;28;20200;-80
2021/07/01 06:44:08;;;;;;;2.13;2.00;;;17.60;99.90;;;;;;10535581;28;20722;-81
2021/07/01 06:49:32;;;;;;;2.67;2.50;;;17.60;99.90;;;;;;10545956;28;20659;-81
2021/07/01 06:54:54;;;;;;;2.60;2.50;;;17.60;99.90;;;;;;10543598;28;20235;-80
2021/07/01 07:00:19;;;;;;;2.70;2.50;;;17.60;99.90;;;;;;10533431;28;20565;-80
2021/07/01 07:05:23;;;;;;;3.17;2.53;;;17.60;99.90;;;;;;10532016;28;20700;-80
2021/07/01 07:10:25;;;;;;;2.20;2.10;;;17.60;99.90;;;;;;10524629;28;20210;-80
2021/07/01 07:15:28;;;;;;;3.87;2.33;;;17.60;99.90;;;;;;10546028;28;20219;-81
2021/07/01 07:20:33;;;;;;;2.77;2.47;;;17.70;99.90;;;;;;10555053;28;20253;-80
2021/07/01 07:25:40;;;;;;;2.40;2.30;;;17.80;99.90;;;;;;10550592;28;20228;-81
2021/07/01 07:30:43;;;;;;;1.97;1.87;;;17.90;99.90;;;;;;10556581;28;20211;-80
2021/07/01 07:35:48;;;;;;;2.70;2.50;;;17.90;99.90;;;;;;10550673;28;20293;-80
2021/07/01 07:40:52;;;;;;;2.60;2.40;;;18.10;99.90;;;;;;10553588;28;20200;-81
2021/07/01 07:45:59;;;;;;;2.80;2.60;;;18.20;99.90;;;;;;10553776;28;20224;-80
2021/07/01 07:51:03;;;;;;;4.87;2.70;;;18.50;99.90;;;;;;10570250;28;20195;-80
2021/07/01 07:56:10;;;;;;;2.60;2.40;;;18.70;99.90;;;;;;10547041;28;20224;-81
2021/07/01 08:01:12;;;;;;;2.57;2.47;;;19.00;99.90;;;;;;10546325;28;20235;-80
2021/07/01 08:07:02;;;;;;;2.53;2.40;;;19.20;99.90;;;;;;10516427;28;20221;-81
2021/07/01 08:12:08;;;;;;;2.70;2.50;;;19.30;99.90;;;;;;10491718;28;20204;-80
2021/07/01 08:17:14;;;;;;;2.73;2.63;;;19.30;99.90;;;;;;10506614;28;20220;-80
2021/07/01 08:22:35;;;;;;;3.20;3.00;;;19.30;99.90;;;;;;10504737;28;20200;-80
2021/07/01 08:33:19;;;;;;;2.93;2.70;;;19.20;99.90;;;;;;10492867;28;20240;-80
2021/07/01 08:38:25;;;;;;;2.93;2.80;;;19.30;99.90;;;;;;10501758;28;20192;-79
2021/07/01 08:43:53;;;;;;;3.63;3.00;;;19.30;99.90;;;;;;10517660;28;20274;-80
2021/07/01 08:49:12;;;;;;;6.60;2.63;;;19.30;99.90;;;;;;10500556;28;20200;-80
2021/07/01 08:54:29;;;;;;;3.10;2.97;;;19.50;99.90;;;;;;10506582;28;20224;-80
2021/07/01 08:59:43;;;;;;;3.40;3.20;;;19.50;99.90;;;;;;10528871;28;20203;-80
2021/07/01 09:04:50;;;;;;;3.50;3.20;;;19.60;99.90;;;;;;10540256;28;20212;-80
2021/07/01 09:09:56;;;;;;;2.83;2.73;;;19.70;99.90;;;;;;10546134;28;20216;-80
2021/07/01 09:15:00;;;;;;;3.30;3.10;;;19.80;99.90;;;;;;10555436;28;20224;-80
2021/07/01 09:20:05;;;;;;;3.80;3.27;;;20.00;99.90;;;;;;10557557;28;20208;-81
2021/07/01 09:25:11;;;;;;;3.20;3.00;;;20.10;99.90;;;;;;10521755;28;20275;-80
2021/07/01 09:30:24;;;;;;;2.70;2.60;;;20.10;99.90;;;;;;10543346;28;20234;-80
2021/07/01 09:35:29;;;;;;;7.20;3.43;;;19.90;99.90;;;;;;10551242;28;20230;-80
2021/07/01 09:40:34;;;;;;;3.00;2.80;;;19.70;99.90;;;;;;10546163;28;20747;-80
2021/07/01 09:45:38;;;;;;;2.97;2.77;;;19.70;99.90;;;;;;10537768;28;20227;-80
2021/07/01 09:50:45;;;;;;;3.07;2.87;;;20.00;99.90;;;;;;10552416;28;20192;-80
2021/07/01 09:55:53;;;;;;;2.90;2.73;;;20.20;99.90;;;;;;10545598;28;20310;-80
2021/07/01 10:00:55;;;;;;;3.07;2.77;;;20.30;99.90;;;;;;10532008;28;20637;-80
2021/07/01 10:06:04;;;;;;;2.60;2.50;;;20.50;99.90;;;;;;10529022;28;20311;-80
2021/07/01 10:11:10;;;;;;;2.63;2.43;;;20.60;99.90;;;;;;10492986;28;20287;-80
2021/07/01 10:16:14;;;;;;;2.70;2.60;;;20.50;99.90;;;;;;10504421;28;20220;-80
2021/07/01 10:21:18;;;;;;;3.40;3.10;;;20.40;99.90;;;;;;10510678;28;20231;-80
2021/07/01 10:26:24;;;;;;;2.50;2.40;;;20.20;99.90;;;;;;10514254;28;20227;-80
2021/07/01 10:31:26;;;;;;;2.80;2.67;;;20.20;99.90;;;;;;10510834;28;20677;-80
2021/07/01 10:36:28;;;;;;;3.50;2.90;;;20.00;99.90;;;;;;10531601;28;20294;-80
2021/07/01 10:41:34;;;;;;;2.40;2.30;;;19.90;99.90;;;;;;10525010;28;20201;-80
2021/07/01 10:46:42;;;;;;;2.63;2.43;;;19.70;99.90;;;;;;10525042;28;20220;-80
2021/07/01 10:51:55;;;;;;;2.20;2.10;;;19.60;99.90;;;;;;10552117;28;20223;-80
2021/07/01 10:57:05;;;;;;;2.50;2.30;;;19.50;99.90;;;;;;10548395;28;20311;-79
2021/07/01 11:02:08;;;;;;;2.27;2.17;;;19.40;99.90;;;;;;10541491;28;20680;-80
2021/07/01 11:07:13;;;;;;;2.10;2.00;;;19.20;99.90;;;;;;10546901;28;20271;-80
2021/07/01 11:12:18;;;;;;;2.40;2.30;;;19.00;99.90;;;;;;10543188;28;20196;-80
2021/07/01 11:17:30;;;;;;;2.33;2.23;;;18.90;99.90;;;;;;10542984;28;20220;-82
2021/07/01 11:22:47;;;;;;;2.40;2.20;;;18.90;99.90;;;;;;10555757;28;20239;-80
2021/07/01 11:27:51;;;;;;;3.00;2.80;;;18.80;99.90;;;;;;10569965;28;20226;-80
2021/07/01 11:33:13;;;;;;;3.00;2.90;;;18.70;99.90;;;;;;10553332;28;20745;-80
2021/07/01 11:38:29;;;;;;;2.80;2.63;;;18.80;99.90;;;;;;10536712;28;20234;-80
2021/07/01 11:43:34;;;;;;;2.40;2.30;;;18.90;99.90;;;;;;10543765;28;20642;-80
2021/07/01 11:48:37;;;;;;;3.30;3.00;;;18.90;99.90;;;;;;10537151;28;20208;-80
2021/07/01 11:53:40;;;;;;;3.13;2.87;;;18.90;99.90;;;;;;10523370;28;20234;-80
2021/07/01 11:58:45;;;;;;;2.87;2.67;;;19.00;99.90;;;;;;10526393;28;20233;-80
2021/07/01 12:03:49;;;;;;;3.73;3.50;;;19.10;99.90;;;;;;10528032;28;20223;-80
2021/07/01 12:08:52;;;;;;;3.23;2.93;;;19.30;99.90;;;;;;10537661;28;20203;-80
2021/07/01 12:13:55;;;;;;;3.47;2.90;;;19.50;99.90;;;;;;10534766;28;20247;-80
2021/07/01 12:19:01;;;;;;;3.40;3.20;;;19.90;99.90;;;;;;10537878;28;20204;-80
2021/07/01 12:24:07;;;;;;;3.90;3.53;;;20.20;99.90;;;;;;10534579;28;20220;-80
2021/07/01 12:29:13;;;;;;;3.50;3.20;;;20.20;99.90;;;;;;10519844;28;20574;-80
2021/07/01 12:34:20;;;;;;;3.17;2.97;;;20.20;99.90;;;;;;10533801;28;20232;-80
2021/07/01 12:39:26;;;;;;;3.83;3.47;;;20.30;99.90;;;;;;10506550;28;20205;-80
2021/07/01 12:44:32;;;;;;;4.07;3.67;;;20.50;99.90;;;;;;10481706;28;20212;-80
2021/07/01 12:49:55;;;;;;;3.50;3.30;;;20.80;99.90;;;;;;10503695;28;20654;-80
2021/07/01 12:54:59;;;;;;;3.90;3.23;;;21.10;99.90;;;;;;10500174;28;20259;-80
2021/07/01 13:00:04;;;;;;;3.53;3.23;;;21.10;99.90;;;;;;10497684;28;20200;-80
2021/07/01 13:05:09;;;;;;;4.57;3.80;;;21.00;99.90;;;;;;10479343;28;20224;-80
2021/07/01 13:10:13;;;;;;;4.00;3.70;;;20.90;99.90;;;;;;10480618;28;20623;-80
2021/07/01 13:15:19;;;;;;;4.30;3.87;;;20.80;99.90;;;;;;10506777;28;20217;-80
2021/07/01 13:20:22;;;;;;;4.73;4.30;;;20.80;99.90;;;;;;10530406;28;20688;-80
2021/07/01 13:25:26;;;;;;;3.97;3.57;;;21.10;99.90;;;;;;10515910;28;20236;-80
2021/07/01 13:30:32;;;;;;;4.67;4.27;;;21.20;99.90;;;;;;10502345;28;20664;-80
2021/07/01 13:35:36;;;;;;;4.97;4.57;;;21.00;99.90;;;;;;10505718;28;20749;-80
2021/07/01 13:40:40;;;;;;;4.77;4.37;;;20.90;99.90;;;;;;10502598;28;20200;-80
2021/07/01 13:45:44;;;;;;;5.10;4.70;;;20.80;99.90;;;;;;10505073;28;20571;-80
2021/07/01 13:50:48;;;;;;;5.63;4.60;;;20.80;99.90;;;;;;10503695;28;20623;-80
2021/07/01 13:55:51;;;;;;;5.07;4.53;;;21.10;99.90;;;;;;10501999;28;20228;-80
2021/07/01 14:00:57;;;;;;;6.53;4.93;;;21.10;99.90;;;;;;10491973;28;20204;-80
2021/07/01 14:06:04;;;;;;;6.93;4.30;;;20.90;99.90;;;;;;10512210;28;20279;-80
2021/07/01 14:11:08;;;;;;;4.97;4.60;;;20.60;99.90;;;;;;10509683;28;20646;-80
2021/07/01 14:16:15;;;;;;;4.57;4.17;;;20.20;99.90;;;;;;10511575;28;20247;-80
2021/07/01 14:21:17;;;;;;;4.77;4.30;;;20.00;99.90;;;;;;10511638;28;20220;-80
2021/07/01 14:26:21;;;;;;;3.90;3.60;;;20.00;99.90;;;;;;10511217;28;20562;-80
2021/07/01 14:31:25;;;;;;;4.87;3.77;;;20.00;99.90;;;;;;10509726;28;20197;-80
2021/07/01 14:36:29;;;;;;;4.27;3.87;;;19.90;99.90;;;;;;10513479;28;20263;-80
2021/07/01 14:41:33;;;;;;;4.50;4.10;;;19.90;99.90;;;;;;10535710;28;20283;-80
2021/07/01 14:46:42;;;;;;;4.80;4.30;;;19.90;99.90;;;;;;10506479;28;20240;-80
2021/07/01 14:51:46;;;;;;;4.10;3.80;;;20.00;99.90;;;;;;10510930;28;20193;-80
2021/07/01 14:56:51;;;;;;;5.70;3.90;;;20.00;99.90;;;;;;10506513;28;20277;-80
2021/07/01 15:01:58;;;;;;;5.13;4.20;;;20.00;99.90;;;;;;10504675;28;20243;-80
2021/07/01 15:07:01;;;;;;;5.70;4.30;;;19.90;99.90;;;;;;10503850;28;20212;-80
2021/07/01 15:12:04;;;;;;;5.40;4.90;;;20.00;99.90;;;;;;10510055;28;20200;-79
2021/07/01 15:17:13;;;;;;;4.37;3.97;;;20.00;99.90;;;;;;10507266;28;20646;-80
2021/07/01 15:22:16;;;;;;;4.13;3.83;;;20.10;99.90;;;;;;10530815;28;20196;-79
2021/07/01 15:27:18;;;;;;;5.53;3.67;;;20.10;99.90;;;;;;10537829;28;20188;-79
2021/07/01 15:32:25;;;;;;;4.70;4.30;;;20.20;99.90;;;;;;10539383;28;20253;-79
2021/07/01 15:37:28;;;;;;;5.20;4.73;;;20.10;99.90;;;;;;10526968;28;20215;-81
2021/07/01 15:42:30;;;;;;;4.90;4.50;;;20.00;99.90;;;;;;10534986;28;20257;-81
2021/07/01 15:47:34;;;;;;;5.20;4.73;;;19.90;99.90;;;;;;10540279;28;20200;-81
2021/07/01 15:52:36;;;;;;;5.90;4.17;;;19.80;99.90;;;;;;10516849;28;20599;-79
2021/07/01 15:57:38;;;;;;;5.17;4.57;;;19.80;99.90;;;;;;10533769;28;20664;-81
2021/07/01 16:02:44;;;;;;;4.10;3.80;;;19.80;99.90;;;;;;10540099;28;20662;-82
2021/07/01 16:07:46;;;;;;;5.03;4.60;;;19.70;99.90;;;;;;10539670;28;20559;-81
2021/07/01 16:12:49;;;;;;;4.30;3.90;;;19.70;99.90;;;;;;10520581;28;20255;-81
2021/07/01 16:17:56;;;;;;;4.70;4.30;;;19.70;99.90;;;;;;10535948;28;20330;-82
2021/07/01 16:23:01;;;;;;;4.40;4.10;;;19.60;99.90;;;;;;10538775;28;20232;-82
2021/07/01 16:28:05;;;;;;;4.90;4.50;;;19.50;99.90;;;;;;10539227;28;20257;-82
2021/07/01 16:33:10;;;;;;;5.00;4.50;;;19.50;99.90;;;;;;10531721;28;20606;-82
2021/07/01 16:38:12;;;;;;;5.30;4.80;;;19.50;99.90;;;;;;10523074;28;20255;-82
2021/07/01 16:43:14;;;;;;;4.73;4.33;;;19.50;99.90;;;;;;10531972;28;20238;-82
2021/07/01 16:48:18;;;;;;;5.20;4.70;;;19.50;99.90;;;;;;10534045;28;20200;-81
2021/07/01 16:53:22;;;;;;;4.73;4.43;;;19.50;99.90;;;;;;10523222;28;20227;-81
2021/07/01 16:58:26;;;;;;;3.87;3.67;;;19.50;99.90;;;;;;10533972;28;20223;-82
2021/07/01 17:03:31;;;;;;;9.30;5.07;;;19.40;99.90;;;;;;10536682;28;20231;-81
2021/07/01 17:08:35;;;;;;;4.20;3.90;;;19.40;99.90;;;;;;10536942;28;20200;-81
2021/07/01 17:13:38;;;;;;;4.30;4.00;;;19.40;99.90;;;;;;10526210;28;20223;-81
2021/07/01 17:18:45;;;;;;;4.53;4.23;;;19.50;99.90;;;;;;10519289;28;20231;-81
2021/07/01 17:23:48;;;;;;;8.47;4.73;;;19.50;99.90;;;;;;10536117;28;20228;-81
2021/07/01 17:28:54;;;;;;;4.83;4.40;;;19.50;99.90;;;;;;10536526;28;20188;-81
2021/07/01 17:33:57;;;;;;;4.50;4.10;;;19.50;99.90;;;;;;10522424;28;20237;-81
2021/07/01 17:39:00;;;;;;;4.50;4.20;;;19.40;99.90;;;;;;10535411;28;20311;-81
2021/07/01 17:44:02;;;;;;;4.90;4.60;;;19.40;99.90;;;;;;10509371;28;20318;-81
2021/07/01 17:49:10;;;;;;;4.27;3.97;;;19.50;99.90;;;;;;10535920;28;20204;-81
2021/07/01 17:54:12;;;;;;;4.90;4.53;;;19.50;99.90;;;;;;10537990;28;20253;-82
2021/07/01 17:59:16;;;;;;;5.57;5.10;;;19.60;99.90;;;;;;10538338;28;20230;-81
2021/07/01 18:04:20;;;;;;;5.67;5.17;;;19.60;99.90;;;;;;10534835;28;20262;-81
2021/07/01 18:09:30;;;;;;;4.23;3.83;;;19.50;99.90;;;;;;10534917;28;20196;-81
2021/07/01 18:14:33;;;;;;;4.83;4.43;;;19.40;99.90;;;;;;10535064;28;20333;-81
2021/07/01 18:19:37;;;;;;;5.97;5.23;;;19.30;99.90;;;;;;10527927;28;20270;-81
2021/07/01 18:24:40;;;;;;;4.30;4.00;;;19.30;99.90;;;;;;10524136;28;20234;-80
2021/07/01 18:29:42;;;;;;;4.17;3.87;;;19.20;99.90;;;;;;10527959;28;20547;-81
2021/07/01 18:34:45;;;;;;;4.40;4.00;;;19.20;99.90;;;;;;10529426;28;20238;-81
2021/07/01 18:39:48;;;;;;;5.13;4.03;;;19.20;99.90;;;;;;10530143;28;20220;-81
2021/07/01 18:44:51;;;;;;;4.03;3.73;;;19.20;99.90;;;;;;10533341;28;20220;-81
2021/07/01 18:49:57;;;;;;;4.50;4.10;;;19.20;99.90;;;;;;10528554;28;20208;-81
2021/07/01 18:54:59;;;;;;;7.30;6.60;;;19.20;99.90;;;;;;10529756;28;20596;-82
2021/07/01 19:00:02;;;;;;;4.87;4.47;;;19.20;99.90;;;;;;10533614;28;20227;-81
2021/07/01 19:05:08;;;;;;;4.47;4.17;;;19.10;99.90;;;;;;10540379;28;20255;-81
2021/07/01 19:10:14;;;;;;;4.67;4.33;;;19.10;99.90;;;;;;10545494;28;20659;-83
2021/07/01 19:15:16;;;;;;;5.07;4.57;;;19.10;99.90;;;;;;10545715;28;20232;-82
2021/07/01 19:20:24;;;;;;;4.57;4.17;;;19.10;99.90;;;;;;10516167;28;20734;-82
2021/07/01 19:25:45;;;;;;;4.97;4.57;;;19.00;99.90;;;;;;10530900;28;20231;-82
2021/07/01 19:30:49;;;;;;;5.70;4.63;;;18.90;99.90;;;;;;10543794;28;20234;-82
2021/07/01 19:35:52;;;;;;;5.80;5.40;;;18.80;99.90;;;;;;10543464;28;20227;-82
2021/07/01 19:41:00;;;;;;;5.10;4.70;;;18.70;99.90;;;;;;10528571;28;20214;-81
2021/07/01 19:46:02;;;;;;;5.60;4.90;;;18.60;99.90;;;;;;10532139;28;20675;-81
2021/07/01 19:51:07;;;;;;;5.33;4.93;;;18.40;99.90;;;;;;10540775;28;20235;-83
2021/07/01 19:56:13;;;;;;;5.20;4.80;;;18.30;99.90;;;;;;10511334;28;20227;-82
2021/07/01 20:01:15;;;;;;;4.73;4.33;;;18.10;99.90;;;;;;10535006;28;20210;-82
2021/07/01 20:06:19;;;;;;;5.40;5.00;;;18.00;99.90;;;;;;10531992;28;20268;-82
2021/07/01 20:11:22;;;;;;;5.53;5.07;;;17.80;99.90;;;;;;10517788;28;20208;-81
2021/07/01 20:16:24;;;;;;;5.17;4.77;;;17.70;99.90;;;;;;10531102;28;20263;-81
2021/07/01 20:21:32;;;;;;;12.10;4.73;;;17.70;99.90;;;;;;10532833;28;20299;-81
2021/07/01 20:26:35;;;;;;;6.40;4.60;;;17.70;99.90;;;;;;10529695;28;20219;-81
2021/07/01 20:31:37;;;;;;;4.50;4.10;;;17.70;99.90;;;;;;10522861;28;20224;-80
2021/07/01 20:36:43;;;;;;;4.73;4.40;;;17.70;99.90;;;;;;10530202;28;20262;-81
2021/07/01 20:47:14;;;;;;;5.40;4.90;;;17.60;99.90;;;;;;10516802;28;20569;-81
2021/07/01 20:52:34;;;;;;;4.80;4.40;;;17.60;99.90;;;;;;10530924;28;20260;-81
2021/07/01 20:57:49;;;;;;;5.03;4.63;;;17.60;99.90;;;;;;10512953;28;20215;-80
2021/07/01 21:02:55;;;;;;;4.90;4.57;;;17.60;99.90;;;;;;10529329;28;20232;-81
2021/07/01 21:07:59;;;;;;;5.63;4.90;;;17.60;99.90;;;;;;10536520;28;20196;-81
2021/07/01 21:13:04;;;;;;;5.23;4.43;;;17.70;99.90;;;;;;10534971;28;20273;-81
2021/07/01 21:18:08;;;;;;;5.30;4.60;;;17.80;99.90;;;;;;10518049;28;20227;-81
2021/07/01 21:23:12;;;;;;;5.50;5.10;;;17.70;99.90;;;;;;10535689;28;20310;-81
2021/07/01 21:28:16;;;;;;;5.30;4.90;;;17.80;99.90;;;;;;10536997;28;20279;-81
2021/07/01 21:33:18;;;;;;;6.07;5.47;;;17.80;99.90;;;;;;10519071;28;20650;-81
2021/07/01 21:38:24;;;;;;;5.30;4.90;;;17.80;99.90;;;;;;10530956;28;20220;-80
2021/07/01 21:43:30;;;;;;;5.13;4.63;;;17.80;99.90;;;;;;10517953;28;20228;-81
2021/07/01 21:48:40;;;;;;;5.97;5.47;;;17.90;99.90;;;;;;10518946;28;20202;-81
2021/07/01 21:53:45;;;;;;;5.80;5.30;;;17.90;99.90;;;;;;10529793;28;20307;-81
2021/07/01 21:58:48;;;;;;;5.20;4.70;;;17.90;99.90;;;;;;10531345;28;20216;-81
2021/07/01 22:03:50;;;;;;;6.70;6.00;;;17.90;99.90;;;;;;10534504;28;20282;-81
2021/07/01 22:08:54;;;;;;;5.47;5.07;;;17.80;99.90;;;;;;10531479;28;20484;-81
2021/07/01 22:13:58;;;;;;;4.93;4.53;;;17.80;99.90;;;;;;10509889;28;20224;-81
2021/07/01 22:19:10;;;;;;;6.20;5.60;;;17.90;99.90;;;;;;10500759;28;20221;-81
2021/07/01 22:24:14;;;;;;;5.97;5.37;;;17.90;99.90;;;;;;10494456;28;20247;-80
2021/07/01 22:29:17;;;;;;;6.20;5.60;;;17.80;99.90;;;;;;10507965;28;20204;-81
2021/07/01 22:34:19;;;;;;;5.13;4.73;;;17.80;99.90;;;;;;10522250;28;20231;-81
2021/07/01 22:39:24;;;;;;;8.83;5.70;;;17.80;99.90;;;;;;10502458;28;20262;-81
2021/07/01 22:44:26;;;;;;;6.00;5.47;;;17.80;99.90;;;;;;10514730;28;20230;-81
2021/07/01 22:49:28;;;;;;;6.33;5.83;;;17.70;99.90;;;;;;10506820;28;20250;-81
2021/07/01 22:54:32;;;;;;;6.17;5.67;;;17.70;99.90;;;;;;10509487;28;20212;-81
2021/07/01 22:59:34;;;;;;;5.97;5.33;;;17.60;99.90;;;;;;10506025;28;20242;-81
2021/07/01 23:04:36;;;;;;;5.67;5.17;;;17.60;99.90;;;;;;10512048;28;20251;-82
2021/07/01 23:09:39;;;;;;;6.20;5.70;;;17.60;99.90;;;;;;10509094;28;20728;-80
2021/07/01 23:14:42;;;;;;;5.57;5.17;;;17.50;99.90;;;;;;10510884;28;20262;-81
2021/07/01 23:19:44;;;;;;;6.43;5.83;;;17.50;99.90;;;;;;10490846;28;20579;-81
2021/07/01 23:24:47;;;;;;;5.93;5.43;;;17.50;99.90;;;;;;10511908;28;20584;-80
2021/07/01 23:29:49;;;;;;;6.87;6.17;;;17.50;99.90;;;;;;10501745;28;20215;-82
2021/07/01 23:34:51;;;;;;;6.73;6.07;;;17.40;99.90;;;;;;10508950;28;20259;-81
2021/07/01 23:39:55;;;;;;;6.30;5.80;;;17.50;99.90;;;;;;10488437;28;20221;-80
2021/07/01 23:44:57;;;;;;;5.90;5.40;;;17.40;99.90;;;;;;10509606;28;20220;-80
2021/07/01 23:49:59;;;;;;;7.80;6.27;;;17.30;99.90;;;;;;10501636;28;20201;-81
2021/07/01 23:55:03;;;;;;;5.47;5.07;;;17.40;99.90;;;;;;10507901;28;20303;-81
